sensor_id;sensor_type;location;lat;lon;timestamp;P1;durP1;ratioP1;P2;durP2;ratioP2
79566;SDS011;69030;48.126;7.816;2023-04-03T10:36:33;6.65;;;1.80;;
79566;SDS011;69030;48.126;7.816;2023-04-03T10:38:54;4.88;;;2.55;;
79566;SDS011;69030;48.126;7.816;2023-04-03T10:48:11;6.80;;;1.15;;
79566;SDS011;69030;48.126;7.816;2023-04-03T11:47:58;6.80;;;1.80;;
79566;SDS011;69030;48.126;7.816;2023-04-03T12:13:33;10.13;;;1.77;;
79566;SDS011;69030;48.126;7.816;2023-04-03T12:15:59;5.65;;;1.52;;
79566;SDS011;69030;48.126;7.816;2023-04-03T12:21:11;4.95;;;1.92;;
79566;SDS011;69030;48.126;7.816;2023-04-03T12:28:56;4.78;;;0.85;;
79566;SDS011;69030;48.126;7.816;2023-04-03T12:31:22;9.50;;;2.10;;
79566;SDS011;69030;48.126;7.816;2023-04-03T12:36:54;7.28;;;1.45;;
79566;SDS011;69030;48.126;7.816;2023-04-03T12:45:12;8.32;;;1.90;;
79566;SDS011;69030;48.126;7.816;2023-04-03T12:47:43;10.20;;;1.38;;
79566;SDS011;69030;48.126;7.816;2023-04-03T12:50:27;11.88;;;1.95;;
79566;SDS011;69030;48.126;7.816;2023-04-03T12:53:15;6.32;;;1.45;;
79566;SDS011;69030;48.126;7.816;2023-04-03T12:55:43;6.10;;;1.23;;
79566;SDS011;69030;48.126;7.816;2023-04-03T12:58:15;5.18;;;1.63;;
79566;SDS011;69030;48.126;7.816;2023-04-03T13:01:01;7.78;;;2.00;;
79566;SDS011;69030;48.126;7.816;2023-04-03T13:03:38;9.07;;;1.88;;
79566;SDS011;69030;48.126;7.816;2023-04-03T13:06:06;5.78;;;1.38;;
79566;SDS011;69030;48.126;7.816;2023-04-03T13:08:31;8.15;;;1.27;;
79566;SDS011;69030;48.126;7.816;2023-04-03T13:11:08;7.85;;;1.52;;
79566;SDS011;69030;48.126;7.816;2023-04-03T13:13:35;6.13;;;1.90;;
79566;SDS011;69030;48.126;7.816;2023-04-03T13:16:09;6.05;;;1.63;;
79566;SDS011;69030;48.126;7.816;2023-04-03T13:18:36;4.53;;;1.55;;
79566;SDS011;69030;48.126;7.816;2023-04-03T13:21:06;6.13;;;1.50;;
79566;SDS011;69030;48.126;7.816;2023-04-03T13:23:36;6.18;;;1.67;;
79566;SDS011;69030;48.126;7.816;2023-04-03T13:26:04;4.10;;;1.55;;
79566;SDS011;69030;48.126;7.816;2023-04-03T13:28:31;6.82;;;1.10;;
79566;SDS011;69030;48.126;7.816;2023-04-03T14:33:58;3.00;;;0.88;;
79566;SDS011;69030;48.126;7.816;2023-04-03T14:36:24;1.55;;;0.95;;
79566;SDS011;69030;48.126;7.816;2023-04-03T14:43:34;3.60;;;3.40;;
79566;SDS011;69030;48.126;7.816;2023-04-03T14:45:59;1.67;;;1.13;;
79566;SDS011;69030;48.126;7.816;2023-04-03T14:48:25;2.38;;;1.80;;
79566;SDS011;69030;48.126;7.816;2023-04-03T15:53:41;5.05;;;1.58;;
79566;SDS011;69030;48.126;7.816;2023-04-03T15:56:07;1.70;;;1.58;;
79566;SDS011;69030;48.126;7.816;2023-04-03T16:00:46;2.33;;;2.05;;
79566;SDS011;69030;48.126;7.816;2023-04-03T16:03:12;2.40;;;2.20;;
79566;SDS011;69030;48.126;7.816;2023-04-03T16:05:40;4.28;;;2.58;;
79566;SDS011;69030;48.126;7.816;2023-04-03T16:08:06;2.80;;;2.25;;
79566;SDS011;69030;48.126;7.816;2023-04-03T16:10:32;2.67;;;2.50;;
79566;SDS011;69030;48.126;7.816;2023-04-03T16:12:58;3.53;;;2.33;;
79566;SDS011;69030;48.126;7.816;2023-04-03T16:15:24;2.53;;;1.20;;
79566;SDS011;69030;48.126;7.816;2023-04-03T16:17:50;2.50;;;2.33;;
79566;SDS011;69030;48.126;7.816;2023-04-03T16:20:16;6.03;;;3.30;;
79566;SDS011;69030;48.126;7.816;2023-04-03T16:22:41;2.67;;;2.25;;
79566;SDS011;69030;48.126;7.816;2023-04-03T16:25:08;3.28;;;2.70;;
79566;SDS011;69030;48.126;7.816;2023-04-03T16:27:34;4.18;;;2.45;;
79566;SDS011;69030;48.126;7.816;2023-04-03T16:30:00;3.72;;;2.33;;
79566;SDS011;69030;48.126;7.816;2023-04-03T16:32:27;3.55;;;3.25;;
79566;SDS011;69030;48.126;7.816;2023-04-03T16:34:54;4.53;;;4.10;;
79566;SDS011;69030;48.126;7.816;2023-04-03T16:37:20;4.95;;;2.47;;
79566;SDS011;69030;48.126;7.816;2023-04-03T16:39:45;4.57;;;2.55;;
79566;SDS011;69030;48.126;7.816;2023-04-03T16:42:11;4.93;;;2.47;;
79566;SDS011;69030;48.126;7.816;2023-04-03T16:44:36;3.88;;;3.00;;
79566;SDS011;69030;48.126;7.816;2023-04-03T16:47:02;3.30;;;2.97;;
79566;SDS011;69030;48.126;7.816;2023-04-03T16:49:28;4.70;;;2.35;;
79566;SDS011;69030;48.126;7.816;2023-04-03T16:51:58;3.33;;;3.03;;
79566;SDS011;69030;48.126;7.816;2023-04-03T16:54:25;2.97;;;2.35;;
79566;SDS011;69030;48.126;7.816;2023-04-03T16:56:50;2.80;;;2.35;;
79566;SDS011;69030;48.126;7.816;2023-04-03T16:59:16;2.97;;;2.67;;
79566;SDS011;69030;48.126;7.816;2023-04-03T17:01:41;3.38;;;3.17;;
79566;SDS011;69030;48.126;7.816;2023-04-03T17:04:07;3.78;;;2.88;;
79566;SDS011;69030;48.126;7.816;2023-04-03T17:06:32;3.83;;;2.85;;
79566;SDS011;69030;48.126;7.816;2023-04-03T17:08:58;5.20;;;2.28;;
79566;SDS011;69030;48.126;7.816;2023-04-03T17:11:23;6.28;;;3.88;;
79566;SDS011;69030;48.126;7.816;2023-04-03T17:13:48;2.85;;;2.65;;
79566;SDS011;69030;48.126;7.816;2023-04-03T17:16:14;3.15;;;2.70;;
79566;SDS011;69030;48.126;7.816;2023-04-03T17:18:40;3.55;;;2.10;;
79566;SDS011;69030;48.126;7.816;2023-04-03T17:21:06;4.05;;;3.65;;
79566;SDS011;69030;48.126;7.816;2023-04-03T17:23:32;4.93;;;3.65;;
79566;SDS011;69030;48.126;7.816;2023-04-03T17:25:59;5.97;;;4.80;;
79566;SDS011;69030;48.126;7.816;2023-04-03T17:28:25;7.22;;;3.30;;
79566;SDS011;69030;48.126;7.816;2023-04-03T17:30:55;5.28;;;2.90;;
79566;SDS011;69030;48.126;7.816;2023-04-03T17:33:23;3.83;;;2.97;;
79566;SDS011;69030;48.126;7.816;2023-04-03T17:35:48;2.83;;;2.63;;
79566;SDS011;69030;48.126;7.816;2023-04-03T17:38:14;7.05;;;3.63;;
79566;SDS011;69030;48.126;7.816;2023-04-03T17:40:39;7.32;;;3.22;;
79566;SDS011;69030;48.126;7.816;2023-04-03T17:43:05;8.80;;;3.30;;
79566;SDS011;69030;48.126;7.816;2023-04-03T17:45:31;5.35;;;2.90;;
79566;SDS011;69030;48.126;7.816;2023-04-03T17:47:56;7.38;;;4.68;;
79566;SDS011;69030;48.126;7.816;2023-04-03T17:50:22;3.40;;;2.22;;
79566;SDS011;69030;48.126;7.816;2023-04-03T17:52:47;7.20;;;4.15;;
79566;SDS011;69030;48.126;7.816;2023-04-03T17:55:13;3.63;;;3.08;;
79566;SDS011;69030;48.126;7.816;2023-04-03T17:57:39;4.72;;;3.17;;
79566;SDS011;69030;48.126;7.816;2023-04-03T18:00:05;7.75;;;2.28;;
79566;SDS011;69030;48.126;7.816;2023-04-03T18:02:31;6.20;;;3.97;;
79566;SDS011;69030;48.126;7.816;2023-04-03T18:04:57;6.25;;;4.07;;
79566;SDS011;69030;48.126;7.816;2023-04-03T18:07:22;5.88;;;3.22;;
79566;SDS011;69030;48.126;7.816;2023-04-03T18:09:48;3.05;;;2.42;;
79566;SDS011;69030;48.126;7.816;2023-04-03T18:12:14;3.42;;;2.13;;
79566;SDS011;69030;48.126;7.816;2023-04-03T18:14:40;6.38;;;3.22;;
79566;SDS011;69030;48.126;7.816;2023-04-03T18:17:06;3.80;;;3.50;;
79566;SDS011;69030;48.126;7.816;2023-04-03T18:19:31;2.65;;;2.45;;
79566;SDS011;69030;48.126;7.816;2023-04-03T18:21:59;5.97;;;3.10;;
79566;SDS011;69030;48.126;7.816;2023-04-03T18:24:30;2.10;;;0.95;;
79566;SDS011;69030;48.126;7.816;2023-04-03T18:26:57;3.28;;;2.50;;
79566;SDS011;69030;48.126;7.816;2023-04-03T18:29:25;3.25;;;2.38;;
79566;SDS011;69030;48.126;7.816;2023-04-03T18:31:51;3.17;;;2.20;;
79566;SDS011;69030;48.126;7.816;2023-04-03T18:34:18;4.13;;;3.53;;
79566;SDS011;69030;48.126;7.816;2023-04-03T18:36:43;3.10;;;2.50;;
79566;SDS011;69030;48.126;7.816;2023-04-03T18:39:10;3.15;;;2.78;;
79566;SDS011;69030;48.126;7.816;2023-04-03T18:41:36;3.53;;;1.25;;
79566;SDS011;69030;48.126;7.816;2023-04-03T18:44:02;5.35;;;3.03;;
79566;SDS011;69030;48.126;7.816;2023-04-03T18:46:30;3.85;;;2.75;;
79566;SDS011;69030;48.126;7.816;2023-04-03T18:48:56;3.83;;;2.63;;
79566;SDS011;69030;48.126;7.816;2023-04-03T18:51:21;7.20;;;3.80;;
79566;SDS011;69030;48.126;7.816;2023-04-03T18:53:47;4.88;;;3.47;;
79566;SDS011;69030;48.126;7.816;2023-04-03T18:56:12;3.60;;;2.75;;
79566;SDS011;69030;48.126;7.816;2023-04-03T18:58:37;5.43;;;4.90;;
79566;SDS011;69030;48.126;7.816;2023-04-03T19:01:03;5.55;;;3.65;;
79566;SDS011;69030;48.126;7.816;2023-04-03T19:03:30;3.47;;;3.17;;
79566;SDS011;69030;48.126;7.816;2023-04-03T19:05:56;4.50;;;3.45;;
79566;SDS011;69030;48.126;7.816;2023-04-03T19:08:22;7.40;;;4.22;;
79566;SDS011;69030;48.126;7.816;2023-04-03T19:10:47;7.38;;;5.40;;
79566;SDS011;69030;48.126;7.816;2023-04-03T19:13:12;5.93;;;4.15;;
79566;SDS011;69030;48.126;7.816;2023-04-03T19:15:38;6.78;;;3.17;;
79566;SDS011;69030;48.126;7.816;2023-04-03T19:18:03;8.20;;;3.20;;
79566;SDS011;69030;48.126;7.816;2023-04-03T19:20:29;6.75;;;4.22;;
79566;SDS011;69030;48.126;7.816;2023-04-03T19:22:54;6.07;;;3.22;;
79566;SDS011;69030;48.126;7.816;2023-04-03T19:25:20;7.43;;;3.63;;
79566;SDS011;69030;48.126;7.816;2023-04-03T19:27:45;7.78;;;3.33;;
79566;SDS011;69030;48.126;7.816;2023-04-03T19:30:12;8.63;;;3.80;;
79566;SDS011;69030;48.126;7.816;2023-04-03T19:32:37;3.17;;;2.85;;
79566;SDS011;69030;48.126;7.816;2023-04-03T19:35:03;5.15;;;2.92;;
79566;SDS011;69030;48.126;7.816;2023-04-03T19:37:29;12.18;;;5.60;;
79566;SDS011;69030;48.126;7.816;2023-04-03T19:39:54;8.65;;;5.38;;
79566;SDS011;69030;48.126;7.816;2023-04-03T19:42:20;10.32;;;4.95;;
79566;SDS011;69030;48.126;7.816;2023-04-03T19:44:46;9.85;;;5.85;;
79566;SDS011;69030;48.126;7.816;2023-04-03T19:47:12;10.73;;;6.63;;
79566;SDS011;69030;48.126;7.816;2023-04-03T19:49:40;7.15;;;4.00;;
79566;SDS011;69030;48.126;7.816;2023-04-03T19:52:05;6.75;;;4.80;;
79566;SDS011;69030;48.126;7.816;2023-04-03T19:54:31;10.27;;;6.28;;
79566;SDS011;69030;48.126;7.816;2023-04-03T19:56:56;6.38;;;3.42;;
79566;SDS011;69030;48.126;7.816;2023-04-03T19:59:22;9.75;;;5.25;;
79566;SDS011;69030;48.126;7.816;2023-04-03T20:01:47;7.10;;;5.03;;
79566;SDS011;69030;48.126;7.816;2023-04-03T20:04:13;5.30;;;3.38;;
79566;SDS011;69030;48.126;7.816;2023-04-03T20:06:39;5.70;;;3.67;;
79566;SDS011;69030;48.126;7.816;2023-04-03T20:09:04;8.60;;;6.85;;
79566;SDS011;69030;48.126;7.816;2023-04-03T20:11:29;6.47;;;3.80;;
79566;SDS011;69030;48.126;7.816;2023-04-03T20:13:55;8.05;;;5.68;;
79566;SDS011;69030;48.126;7.816;2023-04-03T20:16:21;7.40;;;5.20;;
79566;SDS011;69030;48.126;7.816;2023-04-03T20:18:49;6.47;;;5.80;;
79566;SDS011;69030;48.126;7.816;2023-04-03T20:21:16;6.20;;;4.82;;
79566;SDS011;69030;48.126;7.816;2023-04-03T20:23:42;10.48;;;6.55;;
79566;SDS011;69030;48.126;7.816;2023-04-03T20:26:10;13.57;;;6.50;;
79566;SDS011;69030;48.126;7.816;2023-04-03T20:28:47;12.70;;;6.50;;
79566;SDS011;69030;48.126;7.816;2023-04-03T20:31:13;5.05;;;4.15;;
79566;SDS011;69030;48.126;7.816;2023-04-03T20:33:39;7.53;;;4.20;;
79566;SDS011;69030;48.126;7.816;2023-04-03T20:36:04;5.82;;;3.80;;
79566;SDS011;69030;48.126;7.816;2023-04-03T20:38:30;19.95;;;9.25;;
79566;SDS011;69030;48.126;7.816;2023-04-03T20:40:55;10.73;;;5.25;;
79566;SDS011;69030;48.126;7.816;2023-04-03T20:43:21;7.35;;;4.70;;
79566;SDS011;69030;48.126;7.816;2023-04-03T20:45:47;11.68;;;6.43;;
79566;SDS011;69030;48.126;7.816;2023-04-03T20:48:13;4.50;;;3.92;;
79566;SDS011;69030;48.126;7.816;2023-04-03T20:50:39;7.68;;;4.95;;
79566;SDS011;69030;48.126;7.816;2023-04-03T20:53:05;6.93;;;3.40;;
79566;SDS011;69030;48.126;7.816;2023-04-03T20:55:31;3.47;;;2.65;;
79566;SDS011;69030;48.126;7.816;2023-04-03T20:57:57;9.50;;;2.35;;
79566;SDS011;69030;48.126;7.816;2023-04-03T21:00:25;6.95;;;3.75;;
79566;SDS011;69030;48.126;7.816;2023-04-03T21:02:51;8.73;;;4.63;;
79566;SDS011;69030;48.126;7.816;2023-04-03T21:05:20;5.47;;;4.30;;
79566;SDS011;69030;48.126;7.816;2023-04-03T21:19:26;2.75;;;2.30;;
79566;SDS011;69030;48.126;7.816;2023-04-03T21:21:51;2.95;;;2.67;;
79566;SDS011;69030;48.126;7.816;2023-04-03T21:24:17;3.63;;;2.38;;
79566;SDS011;69030;48.126;7.816;2023-04-03T21:26:43;3.38;;;2.95;;
79566;SDS011;69030;48.126;7.816;2023-04-03T21:29:09;5.20;;;2.72;;
79566;SDS011;69030;48.126;7.816;2023-04-03T21:34:21;4.55;;;4.15;;
79566;SDS011;69030;48.126;7.816;2023-04-03T21:36:49;2.20;;;1.35;;
79566;SDS011;69030;48.126;7.816;2023-04-03T21:39:15;4.35;;;3.95;;
79566;SDS011;69030;48.126;7.816;2023-04-03T21:41:40;4.57;;;2.78;;
79566;SDS011;69030;48.126;7.816;2023-04-03T21:44:06;4.78;;;3.03;;
79566;SDS011;69030;48.126;7.816;2023-04-03T21:46:31;2.88;;;2.58;;
79566;SDS011;69030;48.126;7.816;2023-04-03T21:48:57;5.97;;;3.33;;
79566;SDS011;69030;48.126;7.816;2023-04-03T21:51:22;3.40;;;3.10;;
79566;SDS011;69030;48.126;7.816;2023-04-03T21:53:51;3.67;;;3.38;;
79566;SDS011;69030;48.126;7.816;2023-04-03T21:56:18;6.15;;;3.00;;
79566;SDS011;69030;48.126;7.816;2023-04-03T21:58:43;6.43;;;3.70;;
79566;SDS011;69030;48.126;7.816;2023-04-03T22:01:09;4.07;;;3.55;;
79566;SDS011;69030;48.126;7.816;2023-04-03T22:03:36;5.57;;;4.43;;
79566;SDS011;69030;48.126;7.816;2023-04-03T22:06:02;3.22;;;2.92;;
79566;SDS011;69030;48.126;7.816;2023-04-03T22:08:28;3.75;;;3.45;;
79566;SDS011;69030;48.126;7.816;2023-04-03T22:11:00;4.32;;;3.00;;
79566;SDS011;69030;48.126;7.816;2023-04-03T22:13:29;3.50;;;3.05;;
79566;SDS011;69030;48.126;7.816;2023-04-03T22:15:55;3.78;;;1.85;;
79566;SDS011;69030;48.126;7.816;2023-04-03T22:18:21;6.75;;;4.40;;
79566;SDS011;69030;48.126;7.816;2023-04-03T22:20:47;6.75;;;3.75;;
79566;SDS011;69030;48.126;7.816;2023-04-03T22:23:12;5.10;;;4.57;;
79566;SDS011;69030;48.126;7.816;2023-04-03T22:25:37;4.70;;;4.13;;
79566;SDS011;69030;48.126;7.816;2023-04-03T22:28:03;8.48;;;4.00;;
79566;SDS011;69030;48.126;7.816;2023-04-03T22:30:28;6.38;;;4.05;;
79566;SDS011;69030;48.126;7.816;2023-04-03T22:32:53;7.53;;;3.78;;
79566;SDS011;69030;48.126;7.816;2023-04-03T22:35:19;7.65;;;5.80;;
79566;SDS011;69030;48.126;7.816;2023-04-03T22:37:45;13.68;;;6.18;;
79566;SDS011;69030;48.126;7.816;2023-04-03T22:40:11;4.65;;;4.15;;
79566;SDS011;69030;48.126;7.816;2023-04-03T22:42:37;8.05;;;6.50;;
79566;SDS011;69030;48.126;7.816;2023-04-03T22:45:03;8.85;;;4.78;;
79566;SDS011;69030;48.126;7.816;2023-04-03T22:47:28;7.60;;;5.45;;
79566;SDS011;69030;48.126;7.816;2023-04-03T22:49:53;8.23;;;4.80;;
79566;SDS011;69030;48.126;7.816;2023-04-03T22:52:19;4.47;;;3.67;;
79566;SDS011;69030;48.126;7.816;2023-04-03T22:54:46;4.00;;;3.15;;
79566;SDS011;69030;48.126;7.816;2023-04-03T22:57:11;3.92;;;3.05;;
79566;SDS011;69030;48.126;7.816;2023-04-03T22:59:37;7.10;;;4.78;;
79566;SDS011;69030;48.126;7.816;2023-04-03T23:02:02;3.53;;;2.92;;
79566;SDS011;69030;48.126;7.816;2023-04-03T23:04:28;8.95;;;4.95;;
79566;SDS011;69030;48.126;7.816;2023-04-03T23:06:53;5.90;;;4.68;;
79566;SDS011;69030;48.126;7.816;2023-04-03T23:09:19;5.68;;;5.13;;
79566;SDS011;69030;48.126;7.816;2023-04-03T23:11:45;7.78;;;4.90;;
79566;SDS011;69030;48.126;7.816;2023-04-03T23:14:10;7.45;;;4.38;;
79566;SDS011;69030;48.126;7.816;2023-04-03T23:16:36;6.60;;;5.60;;
79566;SDS011;69030;48.126;7.816;2023-04-03T23:19:01;9.48;;;4.90;;
79566;SDS011;69030;48.126;7.816;2023-04-03T23:21:27;8.98;;;4.07;;
79566;SDS011;69030;48.126;7.816;2023-04-03T23:23:52;6.32;;;4.50;;
79566;SDS011;69030;48.126;7.816;2023-04-03T23:26:17;7.60;;;3.38;;
79566;SDS011;69030;48.126;7.816;2023-04-03T23:28:43;7.13;;;3.72;;
79566;SDS011;69030;48.126;7.816;2023-04-03T23:31:08;6.13;;;4.13;;
79566;SDS011;69030;48.126;7.816;2023-04-03T23:33:35;6.43;;;4.93;;
79566;SDS011;69030;48.126;7.816;2023-04-03T23:36:05;9.82;;;5.47;;
79566;SDS011;69030;48.126;7.816;2023-04-03T23:38:32;5.32;;;3.20;;
79566;SDS011;69030;48.126;7.816;2023-04-03T23:40:57;5.47;;;4.43;;
79566;SDS011;69030;48.126;7.816;2023-04-03T23:43:23;5.82;;;3.67;;
79566;SDS011;69030;48.126;7.816;2023-04-03T23:45:48;5.00;;;3.13;;
79566;SDS011;69030;48.126;7.816;2023-04-03T23:48:13;2.95;;;2.65;;
79566;SDS011;69030;48.126;7.816;2023-04-03T23:50:39;4.22;;;2.72;;
79566;SDS011;69030;48.126;7.816;2023-04-03T23:53:04;4.43;;;3.03;;
79566;SDS011;69030;48.126;7.816;2023-04-03T23:55:29;19.92;;;2.53;;
79566;SDS011;69030;48.126;7.816;2023-04-03T23:57:55;3.05;;;2.85;;
